createdAt,value
2022-10-24T00:00:23.882Z,3.20
2022-10-24T00:02:50.358Z,2.90
2022-10-24T00:05:16.862Z,2.43
2022-10-24T00:07:43.536Z,2.97
2022-10-24T00:10:13.667Z,3.20
2022-10-24T00:12:40.012Z,2.80
2022-10-24T00:15:06.975Z,3.00
2022-10-24T00:17:33.687Z,3.47
2022-10-24T00:20:00.597Z,2.77
2022-10-24T00:22:27.222Z,3.40
2022-10-24T00:24:53.760Z,3.77
2022-10-24T00:27:20.068Z,3.67
2022-10-24T00:29:46.421Z,3.60
2022-10-24T00:32:12.941Z,3.57
2022-10-24T00:34:39.306Z,3.20
2022-10-24T00:37:05.602Z,3.60
2022-10-24T00:39:31.859Z,3.80
2022-10-24T00:41:59.194Z,3.80
2022-10-24T00:44:34.362Z,3.73
2022-10-24T00:47:24.747Z,4.13
2022-10-24T00:50:00.569Z,3.90
2022-10-24T00:52:28.619Z,4.20
2022-10-24T00:54:57.901Z,4.03
2022-10-24T00:57:26.197Z,4.50
2022-10-24T00:59:55.215Z,4.40
2022-10-24T01:02:21.776Z,4.37
2022-10-24T01:04:48.516Z,4.77
2022-10-24T01:07:41.215Z,4.60
2022-10-24T01:10:23.857Z,4.17
2022-10-24T01:12:53.355Z,5.00
2022-10-24T01:15:23.263Z,3.87
2022-10-24T01:18:00.732Z,4.47
2022-10-24T01:20:42.450Z,3.53
2022-10-24T01:23:23.563Z,3.13
2022-10-24T01:26:08.001Z,4.00
2022-10-24T01:28:54.339Z,4.03
2022-10-24T01:31:37.878Z,3.03
2022-10-24T01:34:09.890Z,3.20
2022-10-24T01:37:08.366Z,3.47
2022-10-24T01:39:38.145Z,3.23
2022-10-24T01:42:06.201Z,2.43
2022-10-24T01:44:39.393Z,2.53
2022-10-24T01:47:12.101Z,3.17
2022-10-24T01:49:41.024Z,2.97
2022-10-24T01:54:44.891Z,2.73
2022-10-24T01:57:13.334Z,2.50
2022-10-24T01:59:41.513Z,3.63
2022-10-24T02:02:09.938Z,3.27
2022-10-24T02:04:40.876Z,2.70
2022-10-24T02:07:10.179Z,3.37
2022-10-24T02:09:39.713Z,2.77
2022-10-24T02:12:10.514Z,2.80
2022-10-24T02:14:43.204Z,2.80
2022-10-24T02:17:11.033Z,2.70
2022-10-24T02:19:37.846Z,2.67
2022-10-24T02:22:11.224Z,2.70
2022-10-24T02:24:48.464Z,2.87
2022-10-24T02:27:24.345Z,3.27
2022-10-24T02:29:52.931Z,2.63
2022-10-24T02:32:27.281Z,2.83
2022-10-24T02:34:55.190Z,2.87
2022-10-24T02:37:23.486Z,2.73
2022-10-24T02:39:49.998Z,3.27
2022-10-24T02:42:17.005Z,2.53
2022-10-24T02:44:47.000Z,3.73
2022-10-24T02:47:15.084Z,3.03
2022-10-24T02:49:41.861Z,3.20
2022-10-24T02:52:08.286Z,3.00
2022-10-24T02:54:34.666Z,3.83
2022-10-24T02:57:03.121Z,2.23
2022-10-24T02:59:29.586Z,3.77
2022-10-24T03:01:56.472Z,3.20
2022-10-24T03:04:23.178Z,3.03
2022-10-24T03:06:49.664Z,2.80
2022-10-24T03:09:16.005Z,2.80
2022-10-24T03:11:42.471Z,2.50
2022-10-24T03:14:08.866Z,2.37
2022-10-24T03:16:35.140Z,2.57
2022-10-24T03:19:01.502Z,3.00
2022-10-24T03:21:27.907Z,2.43
2022-10-24T03:23:54.238Z,2.80
2022-10-24T03:26:20.699Z,3.10
2022-10-24T03:28:47.034Z,3.03
2022-10-24T03:31:13.439Z,2.97
2022-10-24T03:33:39.783Z,2.70
2022-10-24T03:36:06.702Z,3.30
2022-10-24T03:38:33.063Z,2.77
2022-10-24T03:40:59.402Z,3.00
2022-10-24T03:43:25.732Z,2.83
2022-10-24T03:45:52.076Z,3.13
2022-10-24T03:48:18.497Z,2.63
2022-10-24T03:50:44.865Z,3.13
2022-10-24T03:53:11.306Z,2.67
2022-10-24T03:55:38.106Z,2.80
2022-10-24T03:58:04.465Z,2.43
2022-10-24T04:00:32.407Z,2.53
2022-10-24T04:02:58.690Z,1.90
2022-10-24T04:05:24.937Z,2.77
2022-10-24T04:07:51.344Z,2.90
2022-10-24T04:10:17.689Z,2.70
2022-10-24T04:12:43.961Z,3.10
2022-10-24T04:15:10.720Z,3.50
2022-10-24T04:17:37.017Z,2.87
2022-10-24T04:20:04.137Z,2.20
2022-10-24T04:22:30.519Z,2.20
2022-10-24T04:24:56.882Z,2.50
2022-10-24T04:27:23.267Z,2.80
2022-10-24T04:29:49.536Z,3.27
2022-10-24T04:32:15.893Z,2.53
2022-10-24T04:34:42.235Z,2.70
2022-10-24T04:37:08.513Z,2.50
2022-10-24T04:39:35.031Z,2.70
2022-10-24T04:42:01.488Z,3.53
2022-10-24T04:44:28.102Z,2.90
2022-10-24T04:46:54.453Z,2.70
2022-10-24T04:49:20.898Z,3.30
2022-10-24T04:51:47.317Z,3.07
2022-10-24T04:54:13.886Z,2.87
2022-10-24T04:56:40.218Z,2.83
2022-10-24T04:59:06.592Z,3.07
2022-10-24T05:01:32.951Z,3.70
2022-10-24T05:03:59.313Z,3.27
2022-10-24T05:06:25.628Z,3.03
2022-10-24T05:08:51.966Z,2.43
2022-10-24T05:11:18.277Z,3.00
2022-10-24T05:13:44.681Z,2.50
2022-10-24T05:16:11.024Z,2.50
2022-10-24T05:18:37.317Z,2.53
2022-10-24T05:21:03.743Z,2.60
2022-10-24T05:23:30.170Z,2.40
2022-10-24T05:25:56.505Z,2.73
2022-10-24T05:28:22.900Z,2.50
2022-10-24T05:30:49.179Z,2.70
2022-10-24T05:33:15.608Z,2.47
2022-10-24T05:35:41.902Z,2.57
2022-10-24T05:38:08.557Z,2.23
2022-10-24T05:40:34.909Z,2.23
2022-10-24T05:43:01.307Z,2.87
2022-10-24T05:45:27.646Z,2.60
2022-10-24T05:47:54.064Z,2.33
2022-10-24T05:50:20.369Z,2.60
2022-10-24T05:52:47.345Z,2.20
2022-10-24T05:55:16.952Z,2.60
2022-10-24T05:57:45.051Z,2.60
2022-10-24T06:00:13.262Z,2.43
2022-10-24T06:02:40.819Z,2.33
2022-10-24T06:05:07.996Z,3.00
2022-10-24T06:07:35.202Z,2.50
2022-10-24T06:10:03.242Z,4.50
2022-10-24T06:12:29.632Z,1.83
2022-10-24T06:14:59.959Z,2.07
2022-10-24T06:17:26.861Z,3.10
2022-10-24T06:19:53.257Z,2.70
2022-10-24T06:22:19.547Z,1.87
2022-10-24T06:24:45.821Z,2.53
2022-10-24T06:27:12.310Z,2.43
2022-10-24T06:29:38.684Z,1.70
2022-10-24T06:32:05.140Z,2.70
2022-10-24T06:34:31.514Z,2.53
2022-10-24T06:36:57.942Z,2.53
2022-10-24T06:39:24.626Z,2.07
2022-10-24T06:41:50.948Z,1.90
2022-10-24T06:44:17.504Z,1.93
2022-10-24T06:46:44.635Z,2.00
2022-10-24T06:49:13.006Z,2.10
2022-10-24T06:51:40.318Z,2.30
2022-10-24T06:54:06.626Z,1.93
2022-10-24T06:56:32.893Z,2.00
2022-10-24T06:58:59.194Z,1.97
2022-10-24T07:01:26.975Z,2.10
2022-10-24T07:03:54.673Z,2.53
2022-10-24T07:06:26.282Z,1.57
2022-10-24T07:08:53.460Z,1.90
2022-10-24T07:11:20.095Z,2.07
2022-10-24T07:13:46.661Z,2.13
2022-10-24T07:16:12.924Z,1.30
2022-10-24T07:18:39.342Z,2.40
2022-10-24T07:21:09.064Z,2.13
2022-10-24T07:23:35.586Z,2.13
2022-10-24T07:26:05.087Z,1.93
2022-10-24T07:28:32.312Z,2.10
2022-10-24T07:30:59.106Z,2.10
2022-10-24T07:33:25.924Z,1.53
2022-10-24T07:35:52.375Z,1.90
2022-10-24T07:38:18.888Z,1.93
2022-10-24T07:40:45.623Z,1.60
2022-10-24T07:43:11.997Z,1.80
2022-10-24T07:45:39.331Z,2.27
2022-10-24T07:48:06.573Z,1.60
2022-10-24T07:50:34.989Z,2.20
2022-10-24T07:53:01.302Z,2.30
2022-10-24T07:55:27.691Z,2.30
2022-10-24T07:57:53.935Z,1.50
2022-10-24T08:00:20.586Z,2.03
2022-10-24T08:02:50.672Z,1.77
2022-10-24T08:05:19.377Z,1.67
2022-10-24T08:07:56.419Z,1.37
2022-10-24T08:10:32.085Z,2.30
2022-10-24T08:12:58.733Z,2.07
2022-10-24T08:15:27.636Z,1.60
2022-10-24T08:17:54.993Z,2.27
2022-10-24T08:20:21.998Z,1.70
2022-10-24T08:22:48.269Z,3.30
2022-10-24T08:25:14.631Z,2.03
2022-10-24T08:30:09.144Z,2.57
2022-10-24T08:32:35.775Z,2.50
2022-10-24T08:35:02.087Z,1.50
2022-10-24T08:37:28.359Z,1.70
2022-10-24T08:39:55.682Z,1.70
2022-10-24T08:42:24.702Z,2.17
2022-10-24T08:44:52.128Z,2.60
2022-10-24T08:47:26.173Z,2.00
2022-10-24T08:50:01.337Z,1.90
2022-10-24T08:52:34.733Z,2.00
2022-10-24T08:55:20.247Z,1.83
2022-10-24T08:57:55.653Z,1.87
2022-10-24T09:00:28.288Z,1.43
2022-10-24T09:03:26.618Z,1.83
2022-10-24T09:06:06.144Z,1.50
2022-10-24T09:08:45.935Z,2.10
2022-10-24T09:11:30.749Z,1.93
2022-10-24T09:13:57.807Z,1.80
2022-10-24T09:16:24.666Z,1.97
2022-10-24T09:18:55.287Z,1.70
2022-10-24T09:21:22.616Z,1.93
2022-10-24T09:23:51.729Z,2.10
2022-10-24T09:26:26.301Z,1.63
2022-10-24T09:28:54.986Z,1.70
2022-10-24T09:31:24.472Z,1.70
2022-10-24T09:33:52.044Z,2.00
2022-10-24T09:36:20.249Z,1.20
2022-10-24T09:38:48.741Z,1.40
2022-10-24T09:41:33.125Z,1.70
2022-10-24T09:44:00.434Z,2.20
2022-10-24T09:46:29.597Z,1.60
2022-10-24T09:49:02.858Z,1.53
2022-10-24T09:51:29.088Z,1.67
2022-10-24T09:54:18.743Z,2.23
2022-10-24T09:56:53.574Z,2.47
2022-10-24T09:59:35.269Z,1.80
2022-10-24T10:02:10.487Z,1.80
2022-10-24T10:04:37.659Z,1.40
2022-10-24T10:07:11.632Z,2.03
2022-10-24T10:09:42.141Z,1.90
2022-10-24T10:12:37.796Z,2.10
2022-10-24T10:15:22.883Z,2.13
2022-10-24T10:17:50.574Z,1.60
2022-10-24T10:20:30.602Z,2.37
2022-10-24T10:23:16.526Z,2.43
2022-10-24T10:25:42.959Z,1.77
2022-10-24T10:28:23.865Z,2.07
2022-10-24T10:30:53.293Z,2.03
2022-10-24T10:33:38.929Z,1.97
2022-10-24T10:36:13.727Z,1.67
2022-10-24T10:38:51.235Z,2.20
2022-10-24T10:41:32.538Z,2.03
2022-10-24T10:43:58.813Z,1.80
2022-10-24T10:46:34.232Z,1.70
2022-10-24T10:49:03.833Z,1.70
2022-10-24T10:51:42.331Z,2.53
2022-10-24T10:54:23.132Z,1.80
2022-10-24T10:57:17.477Z,1.07
2022-10-24T11:00:11.246Z,2.07
2022-10-24T11:02:57.290Z,1.77
2022-10-24T11:05:40.230Z,1.73
2022-10-24T11:08:23.401Z,2.00
2022-10-24T11:10:52.598Z,1.43
2022-10-24T11:13:42.112Z,2.40
2022-10-24T11:16:14.553Z,2.10
2022-10-24T11:18:45.357Z,1.50
2022-10-24T11:21:14.661Z,1.90
2022-10-24T11:23:46.704Z,2.00
2022-10-24T11:26:19.794Z,1.60
2022-10-24T11:29:14.961Z,1.60
2022-10-24T11:31:49.644Z,2.03
2022-10-24T11:34:32.572Z,2.50
2022-10-24T11:37:04.448Z,2.77
2022-10-24T11:39:40.541Z,1.73
2022-10-24T11:42:22.974Z,1.67
2022-10-24T11:45:06.449Z,1.47
2022-10-24T11:47:38.564Z,1.40
2022-10-24T11:50:14.897Z,1.70
2022-10-24T11:52:54.392Z,1.70
2022-10-24T11:55:25.583Z,1.77
2022-10-24T11:57:53.890Z,1.80
2022-10-24T12:00:24.554Z,1.70
2022-10-24T12:03:21.366Z,1.60
2022-10-24T12:06:06.269Z,2.20
2022-10-24T12:08:46.640Z,1.90
2022-10-24T12:11:15.868Z,1.47
2022-10-24T12:14:29.711Z,1.70
2022-10-24T12:17:26.113Z,2.00
2022-10-24T12:19:52.805Z,2.40
2022-10-24T12:22:23.571Z,1.87
2022-10-24T12:25:01.586Z,2.30
2022-10-24T12:27:32.775Z,2.77
2022-10-24T12:30:16.197Z,1.50
2022-10-24T12:33:10.453Z,1.73
2022-10-24T12:35:46.870Z,2.60
2022-10-24T12:38:39.228Z,2.00
2022-10-24T12:41:26.836Z,2.20
2022-10-24T12:44:13.177Z,2.40
2022-10-24T12:46:39.456Z,2.20
2022-10-24T12:49:08.785Z,2.20
2022-10-24T12:51:36.897Z,1.63
2022-10-24T12:54:12.368Z,1.97
2022-10-24T12:56:53.876Z,1.63
2022-10-24T12:59:28.613Z,2.23
2022-10-24T13:02:13.016Z,2.13
2022-10-24T13:05:04.145Z,2.07
2022-10-24T13:07:58.579Z,2.20
2022-10-24T13:10:33.203Z,2.10
2022-10-24T13:13:14.561Z,2.03
2022-10-24T13:15:54.003Z,2.27
2022-10-24T13:18:35.765Z,1.87
2022-10-24T13:21:16.860Z,1.73
2022-10-24T13:23:45.674Z,1.83
2022-10-24T13:26:38.771Z,2.00
2022-10-24T13:29:11.314Z,4.83
2022-10-24T13:31:37.573Z,1.97
2022-10-24T13:34:12.774Z,1.90
2022-10-24T13:36:39.489Z,1.60
2022-10-24T13:39:10.352Z,2.20
2022-10-24T13:41:41.929Z,1.70
2022-10-24T13:44:32.711Z,1.60
2022-10-24T13:47:08.063Z,1.60
2022-10-24T13:49:41.494Z,1.97
2022-10-24T13:52:13.996Z,2.00
2022-10-24T13:54:45.472Z,1.60
2022-10-24T13:57:33.882Z,1.60
2022-10-24T14:00:01.496Z,2.07
2022-10-24T14:02:39.236Z,1.87
2022-10-24T14:05:06.081Z,1.83
2022-10-24T14:07:33.733Z,2.03
2022-10-24T14:10:08.118Z,1.60
2022-10-24T14:12:36.195Z,1.77
2022-10-24T14:15:03.010Z,1.70
2022-10-24T14:17:33.444Z,1.93
2022-10-24T14:20:21.648Z,1.40
2022-10-24T14:22:48.246Z,1.73
2022-10-24T14:25:27.086Z,1.93
2022-10-24T14:27:55.737Z,1.80
2022-10-24T14:30:25.081Z,2.27
2022-10-24T14:33:19.419Z,2.23
2022-10-24T14:35:47.331Z,2.10
2022-10-24T14:38:15.814Z,1.90
2022-10-24T14:40:43.195Z,2.30
2022-10-24T14:43:17.153Z,2.93
2022-10-24T14:46:02.008Z,2.10
2022-10-24T14:48:29.668Z,1.90
2022-10-24T14:51:01.873Z,1.10
2022-10-24T14:53:28.512Z,0.93
2022-10-24T14:55:58.041Z,1.00
2022-10-24T14:58:25.921Z,1.10
2022-10-24T15:00:54.425Z,1.63
2022-10-24T15:03:21.050Z,1.40
2022-10-24T15:06:27.225Z,1.30
2022-10-24T15:09:15.171Z,1.13
2022-10-24T15:11:44.573Z,1.43
2022-10-24T15:14:49.022Z,1.30
2022-10-24T15:17:18.659Z,1.43
2022-10-24T15:19:46.899Z,1.93
2022-10-24T15:22:31.439Z,2.20
2022-10-24T15:24:58.943Z,2.20
2022-10-24T15:27:26.807Z,2.43
2022-10-24T15:29:53.122Z,1.93
2022-10-24T15:32:19.445Z,1.67
2022-10-24T15:34:45.756Z,1.97
2022-10-24T15:37:24.550Z,1.70
2022-10-24T15:39:53.401Z,1.80
2022-10-24T15:42:22.459Z,2.23
2022-10-24T15:44:49.320Z,1.73
2022-10-24T15:47:15.649Z,1.80
2022-10-24T15:49:41.973Z,1.73
2022-10-24T15:52:14.941Z,2.60
2022-10-24T15:54:42.009Z,1.37
2022-10-24T15:57:13.100Z,1.90
2022-10-24T15:59:39.709Z,1.87
2022-10-24T16:02:16.078Z,2.63
2022-10-24T16:04:42.545Z,2.10
2022-10-24T16:09:41.908Z,2.47
2022-10-24T16:12:08.219Z,2.73
2022-10-24T16:14:34.480Z,1.93
2022-10-24T16:17:00.780Z,2.23
2022-10-24T16:19:27.178Z,1.80
2022-10-24T16:21:58.098Z,3.23
2022-10-24T16:24:25.055Z,1.90
2022-10-24T16:26:51.820Z,2.70
2022-10-24T16:29:18.255Z,4.27
2022-10-24T16:31:46.741Z,2.50
2022-10-24T16:34:13.036Z,2.20
2022-10-24T16:36:40.893Z,3.03
2022-10-24T16:39:08.252Z,2.53
2022-10-24T16:41:34.591Z,2.37
2022-10-24T16:44:00.989Z,2.30
2022-10-24T16:46:27.709Z,2.33
2022-10-24T16:48:54.708Z,1.83
2022-10-24T16:51:25.753Z,2.90
2022-10-24T16:53:52.088Z,2.60
2022-10-24T16:56:18.547Z,2.77
2022-10-24T16:58:44.858Z,2.47
2022-10-24T17:01:14.156Z,2.53
2022-10-24T17:03:40.667Z,3.23
2022-10-24T17:06:07.740Z,2.97
2022-10-24T17:08:34.311Z,2.13
2022-10-24T17:11:00.758Z,2.37
2022-10-24T17:13:27.693Z,2.20
2022-10-24T17:15:54.113Z,2.07
2022-10-24T17:18:23.245Z,2.23
2022-10-24T17:20:49.821Z,2.20
2022-10-24T17:23:17.404Z,2.33
2022-10-24T17:25:45.593Z,2.20
2022-10-24T17:28:13.757Z,2.10
2022-10-24T17:30:40.475Z,2.00
2022-10-24T17:33:07.287Z,2.47
2022-10-24T17:35:35.962Z,2.57
2022-10-24T17:38:07.832Z,2.13
2022-10-24T17:40:46.041Z,2.70
2022-10-24T17:43:27.798Z,2.33
2022-10-24T17:45:56.799Z,1.67
2022-10-24T17:48:23.887Z,2.50
2022-10-24T17:50:58.766Z,2.27
2022-10-24T17:53:25.244Z,2.23
2022-10-24T17:55:51.624Z,2.30
2022-10-24T17:58:18.025Z,2.40
2022-10-24T18:00:44.830Z,1.70
2022-10-24T18:03:11.357Z,1.97
2022-10-24T18:05:38.359Z,1.90
2022-10-24T18:08:06.147Z,1.77
2022-10-24T18:10:32.629Z,2.07
2022-10-24T18:15:30.526Z,1.80
2022-10-24T18:17:56.943Z,2.30
2022-10-24T18:20:23.390Z,1.90
2022-10-24T18:22:50.192Z,1.73
2022-10-24T18:25:23.211Z,1.30
2022-10-24T18:27:50.492Z,1.33
2022-10-24T18:30:16.815Z,1.30
2022-10-24T18:32:44.181Z,1.20
2022-10-24T18:35:11.873Z,1.40
2022-10-24T18:37:39.077Z,1.67
2022-10-24T18:40:07.601Z,1.40
2022-10-24T18:42:33.832Z,1.57
2022-10-24T18:45:00.470Z,1.43
2022-10-24T18:47:27.169Z,1.70
2022-10-24T18:49:54.242Z,1.80
2022-10-24T18:52:39.964Z,2.03
2022-10-24T18:55:14.331Z,1.50
2022-10-24T18:57:40.976Z,1.57
2022-10-24T19:00:07.459Z,1.60
2022-10-24T19:02:38.730Z,1.30
2022-10-24T19:05:15.318Z,1.47
2022-10-24T19:07:41.922Z,1.90
2022-10-24T19:10:13.932Z,1.90
2022-10-24T19:12:40.224Z,1.00
2022-10-24T19:15:06.730Z,1.37
2022-10-24T19:17:33.015Z,1.80
2022-10-24T19:19:59.557Z,1.33
2022-10-24T19:22:26.844Z,1.90
2022-10-24T19:24:53.154Z,1.50
2022-10-24T19:27:19.409Z,1.30
2022-10-24T19:29:45.660Z,1.73
2022-10-24T19:32:11.964Z,1.60
2022-10-24T19:34:38.372Z,1.70
2022-10-24T19:37:04.684Z,1.97
2022-10-24T19:39:33.903Z,1.80
2022-10-24T19:42:00.435Z,1.67
2022-10-24T19:44:26.796Z,1.70
2022-10-24T19:46:53.232Z,1.83
2022-10-24T19:49:19.530Z,1.70
2022-10-24T19:51:45.838Z,1.80
2022-10-24T19:54:12.150Z,1.80
2022-10-24T19:56:38.461Z,1.33
2022-10-24T19:59:04.764Z,1.10
2022-10-24T20:01:31.310Z,1.40
2022-10-24T20:03:59.922Z,1.20
2022-10-24T20:06:26.369Z,1.30
2022-10-24T20:08:52.859Z,1.73
2022-10-24T20:11:20.434Z,1.67
2022-10-24T20:13:47.894Z,1.47
2022-10-24T20:16:14.352Z,1.90
2022-10-24T20:18:42.877Z,2.17
2022-10-24T20:21:10.697Z,1.73
2022-10-24T20:23:37.354Z,1.83
2022-10-24T20:26:07.451Z,1.90
2022-10-24T20:28:34.897Z,1.93
2022-10-24T20:31:01.576Z,2.20
2022-10-24T20:33:27.907Z,2.53
2022-10-24T20:35:58.242Z,2.20
2022-10-24T20:38:24.544Z,1.63
2022-10-24T20:40:50.859Z,2.10
2022-10-24T20:43:17.507Z,1.60
2022-10-24T20:45:43.816Z,1.30
2022-10-24T20:48:10.128Z,1.23
2022-10-24T20:50:36.642Z,1.63
2022-10-24T20:53:03.490Z,2.00
2022-10-24T20:55:43.963Z,1.40
2022-10-24T20:58:12.945Z,1.40
2022-10-24T21:03:05.591Z,1.30
2022-10-24T21:05:34.016Z,1.27
2022-10-24T21:08:00.429Z,1.70
2022-10-24T21:10:26.725Z,1.87
2022-10-24T21:12:53.427Z,1.30
2022-10-24T21:15:20.131Z,2.43
2022-10-24T21:17:46.655Z,2.00
2022-10-24T21:20:13.155Z,1.80
2022-10-24T21:22:39.489Z,1.83
2022-10-24T21:25:05.931Z,1.83
2022-10-24T21:27:32.302Z,1.40
2022-10-24T21:29:58.632Z,1.20
2022-10-24T21:32:24.926Z,1.70
2022-10-24T21:34:51.292Z,1.23
2022-10-24T21:37:17.604Z,1.30
2022-10-24T21:39:43.906Z,1.50
2022-10-24T21:42:10.193Z,1.63
2022-10-24T21:44:36.499Z,1.00
2022-10-24T21:47:02.782Z,1.10
2022-10-24T21:49:29.147Z,1.40
2022-10-24T21:51:55.532Z,0.90
2022-10-24T21:54:23.949Z,1.10
2022-10-24T21:56:50.415Z,1.00
2022-10-24T21:59:19.369Z,1.80
2022-10-24T22:01:47.330Z,1.30
2022-10-24T22:04:13.908Z,1.17
2022-10-24T22:06:40.996Z,1.10
2022-10-24T22:09:09.031Z,1.73
2022-10-24T22:11:36.790Z,1.20
2022-10-24T22:14:04.688Z,1.10
2022-10-24T22:16:32.261Z,1.37
2022-10-24T22:19:03.176Z,1.20
2022-10-24T22:21:55.888Z,1.10
2022-10-24T22:24:23.250Z,1.17
2022-10-24T22:26:50.839Z,1.20
2022-10-24T22:29:18.696Z,0.93
2022-10-24T22:31:45.537Z,1.40
2022-10-24T22:34:15.442Z,1.20
2022-10-24T22:36:59.792Z,1.40
2022-10-24T22:39:27.035Z,1.23
2022-10-24T22:41:53.585Z,1.40
2022-10-24T22:44:21.241Z,1.93
2022-10-24T22:46:59.842Z,1.63
2022-10-24T22:49:52.184Z,1.43
2022-10-24T22:52:18.657Z,1.63
2022-10-24T22:54:45.260Z,1.80
2022-10-24T22:57:11.810Z,1.80
2022-10-24T22:59:38.166Z,1.93
2022-10-24T23:02:23.718Z,2.07
2022-10-24T23:05:06.623Z,1.40
2022-10-24T23:07:32.838Z,2.00
2022-10-24T23:09:59.083Z,2.07
2022-10-24T23:12:25.736Z,1.80
2022-10-24T23:14:53.189Z,2.13
2022-10-24T23:17:24.016Z,1.90
2022-10-24T23:19:51.336Z,1.70
2022-10-24T23:22:26.622Z,1.87
2022-10-24T23:24:58.751Z,1.80
2022-10-24T23:27:35.269Z,1.93
2022-10-24T23:30:03.493Z,1.80
2022-10-24T23:32:32.816Z,1.93
2022-10-24T23:35:00.439Z,1.60
2022-10-24T23:37:37.297Z,1.50
2022-10-24T23:40:14.455Z,1.83
2022-10-24T23:42:41.080Z,2.30
2022-10-24T23:45:12.529Z,1.90
2022-10-24T23:47:45.625Z,2.33
2022-10-24T23:50:27.893Z,2.00
2022-10-24T23:52:57.229Z,2.00
2022-10-24T23:55:23.673Z,1.60
2022-10-24T23:57:49.982Z,1.50
